Time;durP1;ratioP1;P1;durP2;ratioP2;P2;SDS_P1;SDS_P2;PMS_P1;PMS_P2;Temp;Humidity;BMP_temperature;BMP_pressure;BME280_temperature;BME280_humidity;BME280_pressure;Samples;Min_cycle;Max_cycle;Signal;HPM_P1;HPM_P2
2022/09/22 00:00:58;;;;;;;646.80;491.73;;;13.70;99.90;;;;;;5089890;28;20209;-74
2022/09/22 00:03:25;;;;;;;585.72;485.23;;;13.70;99.90;;;;;;5087362;28;20610;-74
2022/09/22 00:06:00;;;;;;;588.42;478.20;;;13.70;99.90;;;;;;5090815;28;20289;-75
2022/09/22 00:08:27;;;;;;;639.13;473.42;;;13.70;99.90;;;;;;5089454;28;20217;-75
2022/09/22 00:11:02;;;;;;;635.15;481.92;;;13.70;99.90;;;;;;5086187;28;20421;-75
2022/09/22 00:13:31;;;;;;;584.08;478.15;;;13.60;99.90;;;;;;5090795;28;20197;-75
2022/09/22 00:15:59;;;;;;;578.30;470.85;;;13.60;99.90;;;;;;5088805;28;20186;-75
2022/09/22 00:18:26;;;;;;;568.53;477.25;;;13.60;99.90;;;;;;5088114;28;20205;-74
2022/09/22 00:20:53;;;;;;;567.42;470.58;;;13.60;99.90;;;;;;5092748;28;20213;-74
2022/09/22 00:23:23;;;;;;;563.50;469.55;;;13.60;99.90;;;;;;5094880;28;20193;-74
2022/09/22 00:25:50;;;;;;;561.45;475.38;;;13.60;99.90;;;;;;5083047;28;20668;-74
2022/09/22 00:28:19;;;;;;;568.53;478.48;;;13.60;99.90;;;;;;5087566;28;20217;-74
2022/09/22 00:30:47;;;;;;;564.25;466.40;;;13.60;99.90;;;;;;5084792;28;20242;-74
2022/09/22 00:33:14;;;;;;;568.13;471.77;;;13.60;99.90;;;;;;5085049;28;20243;-74
2022/09/22 00:35:40;;;;;;;555.33;460.17;;;13.50;99.90;;;;;;5093461;28;20236;-74
2022/09/22 00:38:07;;;;;;;556.92;474.70;;;13.50;99.90;;;;;;5092232;28;20193;-76
2022/09/22 00:40:34;;;;;;;562.70;465.98;;;13.50;99.90;;;;;;5091028;28;20679;-74
2022/09/22 00:43:16;;;;;;;577.65;457.55;;;13.50;99.90;;;;;;5088867;28;20218;-75
2022/09/22 00:45:44;;;;;;;608.65;475.50;;;13.50;99.90;;;;;;5087118;28;20228;-74
2022/09/22 00:48:12;;;;;;;632.03;470.98;;;13.50;99.90;;;;;;5087642;28;20543;-72
2022/09/22 00:50:40;;;;;;;707.58;485.13;;;13.50;99.90;;;;;;5086909;28;20194;-75
2022/09/22 00:53:12;;;;;;;546.60;447.75;;;13.50;99.90;;;;;;5096249;28;20247;-76
2022/09/22 00:55:43;;;;;;;544.72;446.92;;;13.50;99.90;;;;;;5088305;28;20675;-73
2022/09/22 00:58:13;;;;;;;541.38;447.88;;;13.50;99.90;;;;;;5091721;28;20246;-74
2022/09/22 01:00:40;;;;;;;546.30;461.17;;;13.40;99.90;;;;;;5088379;28;20189;-74
2022/09/22 01:03:11;;;;;;;542.42;457.60;;;13.40;99.90;;;;;;5089457;28;20194;-74
2022/09/22 01:05:42;;;;;;;541.50;460.77;;;13.40;99.90;;;;;;5083641;28;20194;-74
2022/09/22 01:08:10;;;;;;;541.13;465.90;;;13.40;99.90;;;;;;5087164;28;20695;-74
2022/09/22 01:10:37;;;;;;;536.33;460.27;;;13.40;99.90;;;;;;5082143;28;20820;-74
2022/09/22 01:13:17;;;;;;;532.03;444.58;;;13.40;99.90;;;;;;5090325;28;20197;-74
2022/09/22 01:15:54;;;;;;;530.45;439.70;;;13.40;99.90;;;;;;5084522;28;20256;-73
2022/09/22 01:18:29;;;;;;;534.92;448.48;;;13.40;99.90;;;;;;5088250;28;20255;-74
2022/09/22 01:21:36;;;;;;;531.13;443.20;;;13.30;99.90;;;;;;5092917;28;20193;-74
2022/09/22 01:24:36;;;;;;;527.28;429.13;;;13.30;99.90;;;;;;5082376;28;20193;-73
2022/09/22 01:27:20;;;;;;;523.88;419.35;;;13.30;99.90;;;;;;5087130;28;20198;-75
2022/09/22 01:30:29;;;;;;;536.72;443.83;;;13.30;99.90;;;;;;5089022;28;20201;-73
2022/09/22 01:33:22;;;;;;;536.40;428.85;;;13.30;99.90;;;;;;5082018;28;20193;-75
2022/09/22 01:36:02;;;;;;;544.65;433.23;;;13.30;99.90;;;;;;5083969;28;20202;-74
2022/09/22 01:38:35;;;;;;;548.38;437.10;;;13.30;99.90;;;;;;5083911;28;20591;-74
2022/09/22 01:41:07;;;;;;;546.42;439.40;;;13.20;99.90;;;;;;5088600;28;20713;-73
2022/09/22 01:43:40;;;;;;;544.40;421.52;;;13.20;99.90;;;;;;5086684;28;20194;-75
2022/09/22 01:46:12;;;;;;;558.08;426.95;;;13.20;99.90;;;;;;5079097;28;20190;-75
2022/09/22 01:48:44;;;;;;;584.25;445.73;;;13.30;99.90;;;;;;5084743;28;20703;-74
2022/09/22 01:51:18;;;;;;;574.25;435.20;;;13.20;99.90;;;;;;5085469;28;20250;-73
2022/09/22 01:53:54;;;;;;;551.88;421.90;;;13.20;99.90;;;;;;5088114;28;20201;-75
2022/09/22 01:56:22;;;;;;;568.88;442.63;;;13.20;99.90;;;;;;5088090;28;20205;-75
2022/09/22 01:58:52;;;;;;;559.67;429.40;;;13.20;99.90;;;;;;5084937;28;20205;-75
2022/09/22 02:01:24;;;;;;;561.22;438.65;;;13.20;99.90;;;;;;5090684;28;20197;-74
2022/09/22 02:03:56;;;;;;;560.25;436.30;;;13.10;99.90;;;;;;5086599;28;20201;-74
2022/09/22 02:06:29;;;;;;;551.38;431.77;;;13.10;99.90;;;;;;5089853;28;20201;-76
2022/09/22 02:08:59;;;;;;;558.17;434.15;;;13.10;99.90;;;;;;5088318;28;20217;-74
2022/09/22 02:11:26;;;;;;;551.65;431.73;;;13.10;99.90;;;;;;5083082;28;20725;-73
2022/09/22 02:13:53;;;;;;;555.90;436.48;;;13.10;99.90;;;;;;5088495;28;20817;-74
2022/09/22 02:16:23;;;;;;;550.17;430.52;;;13.10;99.90;;;;;;5084641;28;20627;-74
2022/09/22 02:18:53;;;;;;;563.13;444.35;;;13.10;99.90;;;;;;5087290;28;20229;-74
2022/09/22 02:21:20;;;;;;;571.55;438.90;;;13.10;99.90;;;;;;5089121;28;20204;-74
2022/09/22 02:23:48;;;;;;;567.42;426.17;;;13.00;99.90;;;;;;5086452;28;20201;-74
2022/09/22 02:26:22;;;;;;;557.53;420.30;;;13.00;99.90;;;;;;5089055;28;20247;-74
2022/09/22 02:28:52;;;;;;;552.13;451.17;;;13.00;99.90;;;;;;5086303;28;20218;-75
2022/09/22 02:31:21;;;;;;;535.33;426.60;;;13.00;99.90;;;;;;5086867;28;20201;-74
2022/09/22 02:33:50;;;;;;;549.85;425.77;;;13.00;99.90;;;;;;5086362;28;20194;-75
2022/09/22 02:36:40;;;;;;;554.22;424.35;;;13.00;99.90;;;;;;5085264;28;20239;-75
2022/09/22 02:39:09;;;;;;;549.58;420.45;;;13.00;99.90;;;;;;5082445;28;20208;-74
2022/09/22 02:41:47;;;;;;;546.08;426.35;;;13.00;99.90;;;;;;5087896;28;20194;-74
2022/09/22 02:44:18;;;;;;;541.50;423.23;;;13.00;99.90;;;;;;5083026;28;20200;-74
2022/09/22 02:46:53;;;;;;;542.13;421.08;;;12.90;99.90;;;;;;5084798;28;20190;-74
2022/09/22 02:49:21;;;;;;;533.10;414.98;;;12.90;99.90;;;;;;5087687;28;20208;-73
2022/09/22 02:51:49;;;;;;;536.22;425.52;;;12.90;99.90;;;;;;5085076;28;20197;-74
2022/09/22 02:54:16;;;;;;;527.80;410.85;;;12.90;99.90;;;;;;5085961;28;20198;-75
2022/09/22 02:56:43;;;;;;;534.88;410.20;;;12.90;99.90;;;;;;5084665;28;20190;-74
2022/09/22 02:59:10;;;;;;;533.67;419.15;;;12.90;99.90;;;;;;5085939;28;20208;-75
2022/09/22 03:01:37;;;;;;;535.72;416.58;;;12.90;99.90;;;;;;5084497;28;20198;-75
2022/09/22 03:04:06;;;;;;;538.70;418.63;;;12.90;99.90;;;;;;5084991;28;20285;-74
2022/09/22 03:06:33;;;;;;;536.72;420.45;;;12.80;99.90;;;;;;5089258;28;20239;-75
2022/09/22 03:09:00;;;;;;;532.60;413.85;;;12.80;99.90;;;;;;5089579;28;20666;-74
2022/09/22 03:11:27;;;;;;;532.45;417.15;;;12.80;99.90;;;;;;5091606;28;20201;-75
2022/09/22 03:13:54;;;;;;;530.28;420.73;;;12.80;99.90;;;;;;5091034;28;20189;-75
2022/09/22 03:16:20;;;;;;;533.42;422.33;;;12.80;99.90;;;;;;5085966;28;20213;-75
2022/09/22 03:18:47;;;;;;;530.95;422.35;;;12.80;99.90;;;;;;5090269;28;20201;-74
2022/09/22 03:21:15;;;;;;;524.90;414.95;;;12.80;99.90;;;;;;5091829;28;20538;-74
2022/09/22 03:23:41;;;;;;;527.28;419.73;;;12.80;99.90;;;;;;5088352;28;20714;-74
2022/09/22 03:26:08;;;;;;;525.92;426.02;;;12.80;99.90;;;;;;5089735;28;20197;-75
2022/09/22 03:28:35;;;;;;;529.33;426.75;;;12.80;99.90;;;;;;5089862;28;20209;-74
2022/09/22 03:31:01;;;;;;;523.22;411.55;;;12.70;99.90;;;;;;5088413;28;20266;-74
2022/09/22 03:33:28;;;;;;;515.50;390.52;;;12.70;99.90;;;;;;5089839;28;20186;-74
2022/09/22 03:35:55;;;;;;;517.97;409.63;;;12.70;99.90;;;;;;5089146;28;20629;-74
2022/09/22 03:38:23;;;;;;;519.15;408.80;;;12.70;99.90;;;;;;5088069;28;20198;-73
2022/09/22 03:40:51;;;;;;;516.58;411.98;;;12.70;99.90;;;;;;5087351;28;20209;-75
2022/09/22 03:43:18;;;;;;;516.42;401.05;;;12.70;99.90;;;;;;5090569;28;20598;-74
2022/09/22 03:45:45;;;;;;;518.58;405.60;;;12.70;99.90;;;;;;5091094;28;20676;-75
2022/09/22 03:48:11;;;;;;;519.72;406.27;;;12.60;99.90;;;;;;5086505;28;20286;-74
2022/09/22 03:50:38;;;;;;;524.38;408.88;;;12.60;99.90;;;;;;5088009;28;20186;-74
2022/09/22 03:53:05;;;;;;;522.28;409.40;;;12.60;99.90;;;;;;5087737;28;20247;-74
2022/09/22 03:55:33;;;;;;;522.53;407.33;;;12.60;99.90;;;;;;5090117;28;20198;-74
2022/09/22 03:58:00;;;;;;;524.55;413.17;;;12.60;99.90;;;;;;5090578;28;20221;-74
2022/09/22 04:00:27;;;;;;;537.80;414.85;;;12.60;99.90;;;;;;5089513;28;20255;-75
2022/09/22 04:02:53;;;;;;;538.63;419.85;;;12.60;99.90;;;;;;5088166;28;20830;-75
2022/09/22 04:05:20;;;;;;;532.53;408.15;;;12.60;99.90;;;;;;5090147;28;20205;-75
2022/09/22 04:07:47;;;;;;;530.20;417.02;;;12.60;99.90;;;;;;5088051;28;20206;-75
2022/09/22 04:10:14;;;;;;;524.60;387.73;;;12.60;99.90;;;;;;5090058;28;20311;-74
2022/09/22 04:12:42;;;;;;;535.40;403.45;;;12.60;99.90;;;;;;5092785;28;20200;-74
2022/09/22 04:15:09;;;;;;;542.50;421.15;;;12.50;99.90;;;;;;5088431;28;20251;-74
2022/09/22 04:17:36;;;;;;;521.78;397.23;;;12.50;99.90;;;;;;5085842;28;20214;-74
2022/09/22 04:20:03;;;;;;;520.10;400.27;;;12.50;99.90;;;;;;5088153;28;20205;-75
2022/09/22 04:22:30;;;;;;;520.50;391.27;;;12.50;99.90;;;;;;5088660;28;20198;-75
2022/09/22 04:24:57;;;;;;;520.85;383.95;;;12.50;99.90;;;;;;5085686;28;20206;-75
2022/09/22 04:27:25;;;;;;;535.15;399.98;;;12.50;99.90;;;;;;5087937;28;20255;-74
2022/09/22 04:29:53;;;;;;;541.97;398.13;;;12.50;99.90;;;;;;5089655;28;20688;-74
2022/09/22 04:32:19;;;;;;;552.60;403.23;;;12.50;99.90;;;;;;5081423;28;20537;-75
2022/09/22 04:34:46;;;;;;;540.67;399.55;;;12.40;99.90;;;;;;5088257;28;20190;-75
2022/09/22 04:37:13;;;;;;;551.42;402.98;;;12.50;99.90;;;;;;5089482;28;20206;-74
2022/09/22 04:39:40;;;;;;;531.40;385.67;;;12.40;99.90;;;;;;5087470;28;20226;-75
2022/09/22 04:42:08;;;;;;;562.10;403.05;;;12.40;99.90;;;;;;5088273;28;20244;-74
2022/09/22 04:44:35;;;;;;;535.85;394.75;;;12.50;99.90;;;;;;5089727;28;20281;-74
2022/09/22 04:47:03;;;;;;;542.70;411.27;;;12.40;99.90;;;;;;5087727;28;20198;-74
2022/09/22 04:49:30;;;;;;;529.85;394.98;;;12.40;99.90;;;;;;5086312;28;20217;-74
2022/09/22 04:51:57;;;;;;;534.75;406.35;;;12.40;99.90;;;;;;5089606;28;20226;-74
2022/09/22 04:54:24;;;;;;;529.67;399.98;;;12.40;99.90;;;;;;5088244;28;20526;-75
2022/09/22 04:56:51;;;;;;;545.80;406.45;;;12.40;99.90;;;;;;5087309;28;20200;-75
2022/09/22 04:59:17;;;;;;;554.30;392.00;;;12.30;99.90;;;;;;5089198;28;20558;-73
2022/09/22 05:01:44;;;;;;;590.78;402.67;;;12.40;99.90;;;;;;5089632;28;20200;-73
2022/09/22 05:04:12;;;;;;;676.15;420.55;;;12.30;99.90;;;;;;5085947;28;20197;-74
2022/09/22 05:06:40;;;;;;;645.47;403.23;;;12.30;99.90;;;;;;5088876;28;20587;-74
2022/09/22 05:09:07;;;;;;;614.58;390.85;;;12.30;99.90;;;;;;5087902;28;20221;-74
2022/09/22 05:11:34;;;;;;;651.63;391.73;;;12.30;99.90;;;;;;5085454;28;20190;-74
2022/09/22 05:14:01;;;;;;;685.38;418.55;;;12.30;99.90;;;;;;5090949;28;20193;-74
2022/09/22 05:16:31;;;;;;;601.40;395.10;;;12.30;99.90;;;;;;5084556;28;20750;-74
2022/09/22 05:18:57;;;;;;;601.97;407.42;;;12.30;99.90;;;;;;5089523;28;20290;-75
2022/09/22 05:21:25;;;;;;;592.40;409.25;;;12.30;99.90;;;;;;5086046;28;20202;-74
2022/09/22 05:23:54;;;;;;;612.65;386.58;;;12.30;99.90;;;;;;5089930;28;20190;-74
2022/09/22 05:26:20;;;;;;;596.25;399.63;;;12.20;99.90;;;;;;5085388;28;20458;-76
2022/09/22 05:28:50;;;;;;;557.33;403.63;;;12.20;99.90;;;;;;5083490;28;20225;-74
2022/09/22 05:31:16;;;;;;;542.92;405.27;;;12.20;99.90;;;;;;5081997;28;20672;-74
2022/09/22 05:33:43;;;;;;;529.38;391.23;;;12.20;99.90;;;;;;5086563;28;20201;-74
2022/09/22 05:36:10;;;;;;;565.55;407.98;;;12.20;99.90;;;;;;5087068;28;20202;-76
2022/09/22 05:38:38;;;;;;;579.10;395.40;;;12.20;99.90;;;;;;5090078;28;20272;-74
2022/09/22 05:41:05;;;;;;;654.35;404.02;;;12.20;99.90;;;;;;5083191;28;20198;-74
2022/09/22 05:43:31;;;;;;;602.83;399.35;;;12.20;99.90;;;;;;5087989;28;20186;-74
2022/09/22 05:45:58;;;;;;;530.50;401.33;;;12.20;99.90;;;;;;5088333;28;20251;-74
2022/09/22 05:48:25;;;;;;;567.97;402.80;;;12.20;99.90;;;;;;5088101;28;20243;-73
2022/09/22 05:50:52;;;;;;;561.58;390.90;;;12.20;99.90;;;;;;5092491;28;20657;-74
2022/09/22 05:53:18;;;;;;;537.15;399.25;;;12.20;99.90;;;;;;5085718;28;20211;-73
2022/09/22 05:55:46;;;;;;;537.65;391.33;;;12.20;99.90;;;;;;5089049;28;20186;-73
2022/09/22 05:58:13;;;;;;;539.83;397.58;;;12.20;99.90;;;;;;5085648;28;20194;-75
2022/09/22 06:00:40;;;;;;;528.75;391.38;;;12.20;99.90;;;;;;5086102;28;20226;-75
2022/09/22 06:03:07;;;;;;;524.58;392.23;;;12.20;99.90;;;;;;5088057;28;20205;-75
2022/09/22 06:05:34;;;;;;;541.10;397.25;;;12.20;99.90;;;;;;5090708;28;20190;-75
2022/09/22 06:08:05;;;;;;;547.25;393.13;;;12.20;99.90;;;;;;5085294;28;20267;-76
2022/09/22 06:10:33;;;;;;;538.97;396.50;;;12.30;99.90;;;;;;5091395;28;20224;-75
2022/09/22 06:13:01;;;;;;;553.45;411.10;;;12.40;99.90;;;;;;5086109;28;20538;-73
2022/09/22 06:15:29;;;;;;;520.47;398.45;;;12.60;99.90;;;;;;5083851;28;20212;-73
2022/09/22 06:17:56;;;;;;;580.60;411.17;;;12.80;99.90;;;;;;5083422;28;20223;-73
2022/09/22 06:20:23;;;;;;;560.55;435.13;;;13.00;99.90;;;;;;5090112;28;20674;-74
2022/09/22 06:22:50;;;;;;;571.60;431.33;;;13.20;99.90;;;;;;5089327;28;20285;-72
2022/09/22 06:25:17;;;;;;;576.28;434.88;;;13.40;99.90;;;;;;5082862;28;20201;-73
2022/09/22 06:27:44;;;;;;;610.30;456.60;;;13.60;99.90;;;;;;5087680;28;20198;-73
2022/09/22 06:30:13;;;;;;;598.40;462.25;;;13.80;99.90;;;;;;5086711;28;20221;-73
2022/09/22 06:32:42;;;;;;;592.90;460.70;;;13.90;99.90;;;;;;5083211;28;20652;-74
2022/09/22 06:35:10;;;;;;;590.75;476.00;;;14.00;99.90;;;;;;5084156;28;20190;-73
2022/09/22 06:37:40;;;;;;;581.90;482.67;;;14.20;99.90;;;;;;5090273;28;20205;-72
2022/09/22 06:40:08;;;;;;;594.53;492.67;;;14.30;99.90;;;;;;5082496;28;20284;-73
2022/09/22 06:42:35;;;;;;;566.83;499.70;;;14.40;99.90;;;;;;5086116;28;20243;-72
2022/09/22 06:45:03;;;;;;;571.80;504.88;;;14.60;99.90;;;;;;5088807;28;20244;-73
2022/09/22 06:47:32;;;;;;;587.08;507.83;;;14.60;99.90;;;;;;5081379;28;20197;-74
2022/09/22 06:50:01;;;;;;;582.75;514.20;;;14.70;99.90;;;;;;5076390;28;20270;-74
2022/09/22 06:52:27;;;;;;;580.58;508.35;;;14.80;99.90;;;;;;5090377;28;20589;-74
2022/09/22 06:54:57;;;;;;;598.13;525.42;;;14.70;99.90;;;;;;5083414;28;20198;-74
2022/09/22 06:57:26;;;;;;;608.83;513.92;;;14.70;99.90;;;;;;5087801;28;20254;-73
2022/09/22 06:59:53;;;;;;;599.67;510.55;;;14.60;99.90;;;;;;5083775;28;20267;-74
2022/09/22 07:02:26;;;;;;;596.08;525.50;;;14.60;99.90;;;;;;5080515;28;20197;-74
2022/09/22 07:04:54;;;;;;;586.10;498.60;;;14.50;99.90;;;;;;5084935;28;20690;-74
2022/09/22 07:07:21;;;;;;;594.88;492.33;;;14.50;99.90;;;;;;5090431;28;20194;-72
2022/09/22 07:09:47;;;;;;;585.58;504.02;;;14.60;99.90;;;;;;5088149;28;20222;-75
2022/09/22 07:12:16;;;;;;;587.53;509.65;;;14.70;99.90;;;;;;5087754;28;20204;-76
2022/09/22 07:14:47;;;;;;;593.05;514.03;;;14.80;99.90;;;;;;5087985;28;20251;-75
2022/09/22 07:17:15;;;;;;;593.72;519.78;;;14.90;99.90;;;;;;5083125;28;20283;-74
2022/09/22 07:19:41;;;;;;;609.55;542.58;;;15.00;99.90;;;;;;5085779;28;20203;-74
2022/09/22 07:22:09;;;;;;;610.42;544.85;;;15.20;99.90;;;;;;5084612;28;20746;-74
2022/09/22 07:24:36;;;;;;;620.97;554.45;;;15.30;99.90;;;;;;5088283;28;20325;-74
2022/09/22 07:27:03;;;;;;;622.53;556.25;;;15.40;99.90;;;;;;5080919;28;20196;-74
2022/09/22 07:29:32;;;;;;;623.45;557.65;;;15.50;99.90;;;;;;5085092;28;20222;-74
2022/09/22 07:31:58;;;;;;;634.35;569.25;;;15.60;99.90;;;;;;5080634;28;20201;-75
2022/09/22 07:34:26;;;;;;;639.80;575.45;;;15.70;99.90;;;;;;5085617;28;20201;-74
2022/09/22 07:36:53;;;;;;;643.28;578.58;;;15.80;99.90;;;;;;5086209;28;21289;-73
2022/09/22 07:39:23;;;;;;;652.40;587.60;;;15.90;99.90;;;;;;5087332;28;20205;-76
2022/09/22 07:41:50;;;;;;;652.92;588.10;;;16.00;99.90;;;;;;5087025;28;20603;-75
2022/09/22 07:47:03;;;;;;;650.17;584.83;;;16.10;99.90;;;;;;5085249;28;20259;-75
2022/09/22 07:49:30;;;;;;;675.75;609.38;;;16.20;99.90;;;;;;5077527;28;20246;-75
2022/09/22 07:51:57;;;;;;;673.05;605.83;;;16.20;99.90;;;;;;5089722;28;20287;-75
2022/09/22 07:54:26;;;;;;;687.63;618.30;;;16.30;99.90;;;;;;5085760;28;20194;-74
2022/09/22 07:56:56;;;;;;;695.63;620.15;;;16.30;99.90;;;;;;5084003;28;20190;-74
2022/09/22 07:59:24;;;;;;;684.63;615.22;;;16.40;99.90;;;;;;5082368;28;20577;-76
2022/09/22 08:01:52;;;;;;;698.92;626.88;;;16.40;99.90;;;;;;5086681;28;20197;-75
2022/09/22 08:04:21;;;;;;;702.58;633.17;;;16.40;99.90;;;;;;5089857;28;20201;-76
2022/09/22 08:06:50;;;;;;;727.75;658.78;;;16.40;99.90;;;;;;5090098;28;20194;-75
2022/09/22 08:09:18;;;;;;;703.63;637.13;;;16.50;99.90;;;;;;5089395;28;20253;-75
2022/09/22 08:11:47;;;;;;;716.15;649.17;;;16.50;99.90;;;;;;5091621;28;20186;-75
2022/09/22 08:14:16;;;;;;;724.00;656.10;;;16.50;99.90;;;;;;5092987;28;20198;-76
2022/09/22 08:16:43;;;;;;;689.83;625.00;;;16.50;99.90;;;;;;5086918;28;20237;-76
2022/09/22 08:19:11;;;;;;;705.50;639.35;;;16.50;99.90;;;;;;5092110;28;20197;-76
2022/09/22 08:21:39;;;;;;;710.35;643.65;;;16.50;99.90;;;;;;5087912;28;20190;-77
2022/09/22 08:24:08;;;;;;;700.13;633.17;;;16.50;99.90;;;;;;5091689;28;20208;-77
2022/09/22 08:26:36;;;;;;;709.60;642.25;;;16.50;99.90;;;;;;5089341;28;20202;-77
2022/09/22 08:29:05;;;;;;;709.65;642.72;;;16.50;99.90;;;;;;5089212;28;20228;-77
2022/09/22 08:31:34;;;;;;;708.03;641.13;;;16.50;99.90;;;;;;5089192;28;20221;-77
2022/09/22 08:34:03;;;;;;;717.30;649.63;;;16.60;99.90;;;;;;5089987;28;20214;-77
2022/09/22 08:36:30;;;;;;;712.58;647.08;;;16.60;99.90;;;;;;5083877;28;20591;-77
2022/09/22 08:38:59;;;;;;;713.33;646.65;;;16.60;99.90;;;;;;5088028;28;20611;-78
2022/09/22 08:41:34;;;;;;;710.63;641.30;;;16.60;99.90;;;;;;5089341;28;20201;-77
2022/09/22 08:44:11;;;;;;;724.97;654.13;;;16.60;99.90;;;;;;5090266;28;20193;-75
2022/09/22 08:46:42;;;;;;;718.83;649.63;;;16.60;99.90;;;;;;5081218;28;20829;-76
2022/09/22 08:52:09;;;;;;;727.15;661.85;;;16.60;99.90;;;;;;5090525;28;20196;-76
2022/09/22 08:54:37;;;;;;;715.42;649.95;;;16.60;99.90;;;;;;5082586;28;20225;-76
2022/09/22 08:57:24;;;;;;;703.30;637.15;;;16.60;99.90;;;;;;5082146;28;20536;-76
2022/09/22 08:59:58;;;;;;;712.38;647.10;;;16.60;99.90;;;;;;5088994;28;20193;-75
2022/09/22 09:02:40;;;;;;;715.60;650.10;;;16.70;99.90;;;;;;5093038;28;20193;-76
2022/09/22 09:05:43;;;;;;;707.97;641.53;;;16.60;99.90;;;;;;5087716;28;20201;-75
2022/09/22 09:08:31;;;;;;;705.05;638.65;;;16.60;99.90;;;;;;5085317;28;20277;-76
2022/09/22 09:11:08;;;;;;;718.95;653.35;;;16.60;99.90;;;;;;5082548;28;20217;-75
2022/09/22 09:13:50;;;;;;;712.10;645.78;;;16.60;99.90;;;;;;5089185;28;20243;-77
2022/09/22 09:16:33;;;;;;;721.05;653.95;;;16.70;99.90;;;;;;5079906;28;20218;-76
2022/09/22 09:19:09;;;;;;;702.40;635.80;;;16.60;99.90;;;;;;5088253;28;20193;-76
2022/09/22 09:21:40;;;;;;;705.50;639.10;;;16.60;99.90;;;;;;5089190;28;20679;-74
2022/09/22 09:24:15;;;;;;;718.90;651.58;;;16.60;99.90;;;;;;5089978;28;20410;-75
2022/09/22 09:26:42;;;;;;;722.22;653.15;;;16.60;99.90;;;;;;5087776;28;20266;-76
2022/09/22 09:29:18;;;;;;;728.15;657.47;;;16.60;99.90;;;;;;5085569;28;20656;-75
2022/09/22 09:31:48;;;;;;;714.65;645.65;;;16.60;99.90;;;;;;5084233;28;20220;-76
2022/09/22 09:34:19;;;;;;;722.78;653.97;;;16.60;99.90;;;;;;5088328;28;20218;-75
2022/09/22 09:36:51;;;;;;;715.67;647.83;;;16.60;99.90;;;;;;5087175;28;20698;-75
2022/09/22 09:39:24;;;;;;;729.83;661.75;;;16.60;99.90;;;;;;5088687;28;20943;-75
2022/09/22 09:41:53;;;;;;;727.35;659.22;;;16.60;99.90;;;;;;5087255;28;20204;-75
2022/09/22 09:44:26;;;;;;;720.67;653.78;;;16.60;99.90;;;;;;5084955;28;20620;-75
2022/09/22 09:47:01;;;;;;;704.80;639.53;;;16.60;99.90;;;;;;5084485;28;20571;-75
2022/09/22 09:49:30;;;;;;;701.05;636.85;;;16.60;99.90;;;;;;5087889;28;20572;-75
2022/09/22 09:51:59;;;;;;;715.53;650.72;;;16.60;99.90;;;;;;5088775;28;20406;-75
2022/09/22 09:54:27;;;;;;;699.95;635.80;;;16.60;99.90;;;;;;5085993;28;20194;-75
2022/09/22 09:57:11;;;;;;;721.97;657.22;;;16.60;99.90;;;;;;5092059;28;20205;-76
2022/09/22 10:02:27;;;;;;;706.47;641.53;;;16.50;99.90;;;;;;5080504;28;20620;-76
2022/09/22 10:04:58;;;;;;;713.22;648.00;;;16.50;99.90;;;;;;5087813;28;20208;-75
2022/09/22 10:07:27;;;;;;;706.33;640.70;;;16.50;99.90;;;;;;5088547;28;20198;-74
2022/09/22 10:09:55;;;;;;;700.72;634.72;;;16.50;99.90;;;;;;5080552;28;20197;-73
2022/09/22 10:12:27;;;;;;;710.08;643.67;;;16.50;99.90;;;;;;5081423;28;20205;-74
2022/09/22 10:14:57;;;;;;;701.60;634.08;;;16.40;99.90;;;;;;5087995;28;20190;-74
2022/09/22 10:17:29;;;;;;;707.40;639.58;;;16.50;99.90;;;;;;5082957;28;20209;-77
2022/09/22 10:20:19;;;;;;;701.08;633.15;;;16.50;99.90;;;;;;5089002;28;20235;-76
2022/09/22 10:22:46;;;;;;;695.75;627.88;;;16.40;99.90;;;;;;5083086;28;20193;-75
2022/09/22 10:25:21;;;;;;;707.63;639.83;;;16.40;99.90;;;;;;5084317;28;20233;-75
2022/09/22 10:28:00;;;;;;;702.83;635.22;;;16.40;99.90;;;;;;5088076;28;20563;-75
2022/09/22 10:30:30;;;;;;;692.55;624.67;;;16.40;99.90;;;;;;5086007;28;20517;-74
2022/09/22 10:33:13;;;;;;;690.83;623.90;;;16.40;99.90;;;;;;5080855;28;20194;-76
2022/09/22 10:35:43;;;;;;;684.85;617.53;;;16.40;99.90;;;;;;5088473;28;20220;-74
2022/09/22 10:38:18;;;;;;;700.85;632.38;;;16.40;99.90;;;;;;5091839;28;20282;-75
2022/09/22 10:40:48;;;;;;;712.80;643.33;;;16.40;99.90;;;;;;5079211;28;20201;-73
2022/09/22 10:43:35;;;;;;;701.83;634.17;;;16.40;99.90;;;;;;5089495;28;20197;-74
2022/09/22 10:46:27;;;;;;;687.42;619.17;;;16.40;99.90;;;;;;5080919;28;20201;-75
2022/09/22 10:49:02;;;;;;;677.53;610.33;;;16.40;99.90;;;;;;5084667;28;20198;-74
2022/09/22 10:51:43;;;;;;;691.97;623.72;;;16.30;99.90;;;;;;5091309;28;20220;-73
2022/09/22 10:54:23;;;;;;;686.08;617.92;;;16.30;99.90;;;;;;5092561;28;20201;-74
2022/09/22 10:56:54;;;;;;;666.67;598.88;;;16.30;99.90;;;;;;5083540;28;20192;-73
2022/09/22 10:59:34;;;;;;;683.72;614.40;;;16.30;99.90;;;;;;5089702;28;20334;-75
2022/09/22 11:02:33;;;;;;;703.78;630.20;;;16.30;99.90;;;;;;5077653;28;20209;-74
2022/09/22 11:05:17;;;;;;;679.20;607.60;;;16.30;99.90;;;;;;5072308;28;20194;-74
2022/09/22 11:13:51;;;;;;;671.97;601.97;;;16.20;99.90;;;;;;5087623;28;20358;-75
2022/09/22 11:16:29;;;;;;;666.10;597.97;;;16.20;99.90;;;;;;5082518;28;20226;-74
2022/09/22 11:19:15;;;;;;;676.10;605.67;;;16.20;99.90;;;;;;5091702;28;20200;-74
2022/09/22 11:21:56;;;;;;;659.88;590.00;;;16.20;99.90;;;;;;5087670;28;20205;-76
2022/09/22 11:24:44;;;;;;;668.53;598.22;;;16.20;99.90;;;;;;5091999;28;20216;-74
2022/09/22 11:27:21;;;;;;;678.90;609.33;;;16.20;99.90;;;;;;5084659;28;20201;-74
2022/09/22 11:30:07;;;;;;;679.97;610.20;;;16.20;99.90;;;;;;5082425;28;20191;-76
2022/09/22 11:33:07;;;;;;;690.72;617.35;;;16.20;99.90;;;;;;5076644;28;20227;-74
2022/09/22 11:36:00;;;;;;;667.38;587.28;;;16.20;99.90;;;;;;5069550;28;20196;-74
2022/09/22 11:39:02;;;;;;;694.33;618.45;;;16.10;99.90;;;;;;5096219;28;20599;-76
2022/09/22 11:41:38;;;;;;;666.33;587.95;;;16.10;99.90;;;;;;5081791;28;20208;-74
2022/09/22 11:44:30;;;;;;;703.03;612.50;;;16.10;99.90;;;;;;5089795;28;20203;-77
2022/09/22 11:47:38;;;;;;;715.72;601.67;;;16.10;99.90;;;;;;5088821;28;20196;-75
2022/09/22 11:50:23;;;;;;;706.72;596.30;;;16.20;99.90;;;;;;5065094;28;20192;-74
2022/09/22 11:53:05;;;;;;;705.45;587.88;;;16.20;99.90;;;;;;5087686;28;20185;-76
2022/09/22 11:55:38;;;;;;;715.30;621.78;;;16.30;99.90;;;;;;5086490;28;20548;-74
2022/09/22 11:58:13;;;;;;;711.40;610.78;;;16.30;99.90;;;;;;5081832;28;20190;-77
2022/09/22 12:00:48;;;;;;;717.92;619.53;;;16.30;99.90;;;;;;5093241;28;20199;-74
2022/09/22 12:03:18;;;;;;;721.45;625.33;;;16.30;99.90;;;;;;5079777;28;20266;-74
2022/09/22 12:05:48;;;;;;;713.08;623.50;;;16.30;99.90;;;;;;5096689;28;20193;-73
2022/09/22 12:08:17;;;;;;;731.97;616.47;;;16.30;99.90;;;;;;5091760;28;20189;-74
2022/09/22 12:10:45;;;;;;;702.88;620.47;;;16.30;99.90;;;;;;5089725;28;20312;-74
2022/09/22 12:13:19;;;;;;;701.83;621.78;;;16.40;99.90;;;;;;5091473;28;20270;-74
2022/09/22 12:15:57;;;;;;;706.10;620.28;;;16.40;99.90;;;;;;5090838;28;20855;-74
2022/09/22 12:18:32;;;;;;;701.83;610.08;;;16.40;99.90;;;;;;5079395;28;20189;-76
2022/09/22 12:21:04;;;;;;;693.88;601.85;;;16.30;99.90;;;;;;5082089;28;20190;-72
2022/09/22 12:23:42;;;;;;;705.20;609.90;;;16.30;99.90;;;;;;5079066;28;20194;-76
2022/09/22 12:26:10;;;;;;;708.75;613.05;;;16.40;99.90;;;;;;5086747;28;20201;-74
2022/09/22 12:28:41;;;;;;;727.13;629.20;;;16.40;99.90;;;;;;5086949;28;20235;-73
2022/09/22 12:31:12;;;;;;;711.70;619.42;;;16.30;99.90;;;;;;5079387;28;20630;-75
2022/09/22 12:33:46;;;;;;;714.72;627.53;;;16.40;99.90;;;;;;5097161;28;20967;-75
2022/09/22 12:36:13;;;;;;;711.78;612.75;;;16.40;99.90;;;;;;5095191;28;20600;-73
2022/09/22 12:38:40;;;;;;;715.58;621.15;;;16.40;99.90;;;;;;5080114;28;20214;-74
2022/09/22 12:41:07;;;;;;;704.78;609.22;;;16.40;99.90;;;;;;5081182;28;20252;-75
2022/09/22 12:43:36;;;;;;;687.35;600.20;;;16.40;99.90;;;;;;5085348;28;20582;-73